Time;durP1;ratioP1;P1;durP2;ratioP2;P2;SDS_P1;SDS_P2;PMS_P1;PMS_P2;Temp;Humidity;BMP_temperature;BMP_pressure;BME280_temperature;BME280_humidity;BME280_pressure;Samples;Min_cycle;Max_cycle;Signal;HPM_P1;HPM_P2
2023/12/26 00:01:19;;;;;;;117.47;43.27;;;;;;;;;;4956266;28;20210;-45
2023/12/26 00:03:45;;;;;;;120.70;44.38;;;;;;;;;;4956307;28;20465;-45
2023/12/26 00:06:11;;;;;;;145.00;52.60;;;;;;;;;;4953244;28;20223;-45
2023/12/26 00:08:37;;;;;;;137.23;51.47;;;;;;;;;;4954554;28;20449;-46
2023/12/26 00:11:03;;;;;;;121.67;43.07;;;;;;;;;;4955880;28;20509;-46
2023/12/26 00:13:29;;;;;;;146.95;53.25;;;;;;;;;;4954581;28;20398;-48
2023/12/26 00:15:55;;;;;;;147.20;52.33;;;;;;;;;;4954409;28;20182;-46
2023/12/26 00:18:21;;;;;;;142.38;49.63;;;;;;;;;;4955967;28;20177;-46
2023/12/26 00:20:47;;;;;;;144.43;51.60;;;;;;;;;;4955965;28;20178;-46
2023/12/26 00:23:14;;;;;;;114.77;41.27;;;;;;;;;;4955993;28;20273;-46
2023/12/26 00:25:40;;;;;;;101.60;39.58;;;;;;;;;;4955142;28;20404;-46
2023/12/26 00:28:06;;;;;;;98.53;38.85;;;;;;;;;;4955916;28;20186;-46
2023/12/26 00:30:32;;;;;;;108.60;41.75;;;;;;;;;;4955805;28;20166;-46
2023/12/26 00:32:58;;;;;;;106.72;41.00;;;;;;;;;;4955749;28;20678;-46
2023/12/26 00:35:24;;;;;;;100.83;39.40;;;;;;;;;;4956058;28;20174;-46
2023/12/26 00:37:50;;;;;;;104.00;38.55;;;;;;;;;;4955918;28;20527;-46
2023/12/26 00:40:16;;;;;;;100.33;39.53;;;;;;;;;;4955617;28;20178;-46
2023/12/26 00:42:43;;;;;;;97.67;38.73;;;;;;;;;;4955652;28;20429;-46
2023/12/26 00:45:09;;;;;;;93.82;38.40;;;;;;;;;;4955825;28;20421;-46
2023/12/26 00:47:35;;;;;;;89.38;37.40;;;;;;;;;;4955732;28;20659;-46
2023/12/26 00:50:02;;;;;;;78.37;36.97;;;;;;;;;;4955577;28;20205;-46
2023/12/26 00:52:30;;;;;;;86.60;37.97;;;;;;;;;;4955248;28;20429;-46
2023/12/26 00:54:56;;;;;;;82.40;36.67;;;;;;;;;;4955429;28;20183;-46
2023/12/26 00:57:22;;;;;;;88.97;42.47;;;;;;;;;;4955584;28;20175;-45
2023/12/26 00:59:48;;;;;;;79.67;36.37;;;;;;;;;;4955481;28;20444;-46
2023/12/26 01:02:14;;;;;;;78.57;42.97;;;;;;;;;;4955204;28;20445;-47
2023/12/26 01:04:40;;;;;;;53.30;36.92;;;;;;;;;;4956101;28;20430;-45
2023/12/26 01:07:06;;;;;;;49.60;31.93;;;;;;;;;;4955354;28;20358;-46
2023/12/26 01:09:34;;;;;;;42.10;30.75;;;;;;;;;;4955120;28;20472;-47
2023/12/26 01:12:00;;;;;;;49.75;37.67;;;;;;;;;;4954830;28;20194;-45
2023/12/26 01:14:26;;;;;;;38.22;29.00;;;;;;;;;;4955284;28;20636;-47
2023/12/26 01:16:52;;;;;;;51.43;37.07;;;;;;;;;;4955294;28;20183;-46
2023/12/26 01:19:18;;;;;;;50.73;35.50;;;;;;;;;;4955212;28;20751;-47
2023/12/26 01:21:44;;;;;;;79.00;40.57;;;;;;;;;;4954742;28;20444;-46
2023/12/26 01:24:10;;;;;;;84.70;35.53;;;;;;;;;;4954822;28;20497;-46
2023/12/26 01:26:36;;;;;;;91.77;36.43;;;;;;;;;;4955064;28;20188;-46
2023/12/26 01:29:04;;;;;;;96.57;38.42;;;;;;;;;;4954840;28;20465;-46
2023/12/26 01:31:30;;;;;;;101.15;44.45;;;;;;;;;;4954581;28;20197;-46
2023/12/26 01:33:56;;;;;;;81.90;35.93;;;;;;;;;;4954783;28;20174;-46
2023/12/26 01:36:22;;;;;;;80.23;38.80;;;;;;;;;;4954717;28;20510;-46
2023/12/26 01:38:48;;;;;;;77.95;34.05;;;;;;;;;;4954818;28;20953;-47
2023/12/26 01:41:14;;;;;;;93.60;37.77;;;;;;;;;;4954732;28;20186;-46
2023/12/26 01:43:40;;;;;;;102.23;38.50;;;;;;;;;;4954840;28;20970;-46
2023/12/26 01:46:06;;;;;;;110.30;40.80;;;;;;;;;;4954905;28;20425;-45
2023/12/26 01:48:32;;;;;;;102.90;40.13;;;;;;;;;;4954491;28;20505;-45
2023/12/26 01:51:00;;;;;;;104.97;38.72;;;;;;;;;;4954117;28;20468;-46
2023/12/26 01:53:26;;;;;;;105.30;39.53;;;;;;;;;;4954422;28;20230;-45
2023/12/26 01:55:52;;;;;;;110.63;40.72;;;;;;;;;;4954507;28;20178;-45
2023/12/26 01:58:18;;;;;;;110.53;40.13;;;;;;;;;;4954560;28;20181;-46
2023/12/26 02:00:44;;;;;;;113.35;41.53;;;;;;;;;;4953896;28;20171;-46
2023/12/26 02:03:10;;;;;;;114.70;40.60;;;;;;;;;;4953731;28;20289;-45
2023/12/26 02:05:38;;;;;;;124.83;44.60;;;;;;;;;;4953447;28;20421;-46
2023/12/26 02:08:04;;;;;;;122.15;42.10;;;;;;;;;;4954110;28;20917;-46
2023/12/26 02:10:30;;;;;;;117.93;42.00;;;;;;;;;;4954233;28;20174;-45
2023/12/26 02:12:56;;;;;;;119.13;41.37;;;;;;;;;;4953370;28;20201;-45
2023/12/26 02:15:22;;;;;;;118.63;41.70;;;;;;;;;;4954046;28;20421;-45
2023/12/26 02:17:48;;;;;;;116.40;40.40;;;;;;;;;;4954149;28;20635;-45
2023/12/26 02:20:14;;;;;;;120.85;43.33;;;;;;;;;;4953917;28;20442;-46
2023/12/26 02:22:41;;;;;;;117.13;41.87;;;;;;;;;;4953691;28;20695;-45
2023/12/26 02:25:08;;;;;;;143.93;51.60;;;;;;;;;;4953853;28;20417;-45
2023/12/26 02:27:36;;;;;;;114.47;41.85;;;;;;;;;;4953989;28;20201;-46
2023/12/26 02:30:04;;;;;;;135.10;50.58;;;;;;;;;;4953748;28;20285;-45
2023/12/26 02:32:30;;;;;;;115.85;46.15;;;;;;;;;;4953947;28;20186;-45
2023/12/26 02:35:00;;;;;;;122.13;49.03;;;;;;;;;;4953683;28;20181;-45
2023/12/26 02:37:26;;;;;;;123.63;49.30;;;;;;;;;;4946778;29;20188;-45
2023/12/26 02:39:52;;;;;;;115.00;42.85;;;;;;;;;;4953732;28;20710;-45
2023/12/26 02:42:18;;;;;;;116.47;42.40;;;;;;;;;;4953336;28;20201;-46
2023/12/26 02:44:44;;;;;;;140.80;52.65;;;;;;;;;;4953763;28;20631;-46
2023/12/26 02:47:10;;;;;;;115.47;43.38;;;;;;;;;;4953549;28;20189;-45
2023/12/26 02:49:36;;;;;;;111.93;41.50;;;;;;;;;;4953531;28;20277;-45
2023/12/26 02:52:03;;;;;;;112.73;42.50;;;;;;;;;;4953151;28;20281;-45
2023/12/26 02:54:29;;;;;;;140.10;50.78;;;;;;;;;;4953720;28;20438;-46
2023/12/26 02:56:55;;;;;;;123.87;48.70;;;;;;;;;;4953540;28;20207;-46
2023/12/26 02:59:21;;;;;;;102.53;41.40;;;;;;;;;;4953619;28;20405;-45
2023/12/26 03:01:48;;;;;;;108.30;42.10;;;;;;;;;;4950578;28;20666;-45
2023/12/26 03:04:14;;;;;;;110.22;40.90;;;;;;;;;;4953239;29;20181;-45
2023/12/26 03:06:40;;;;;;;100.87;37.83;;;;;;;;;;4953933;28;20178;-44
2023/12/26 03:09:06;;;;;;;119.87;42.37;;;;;;;;;;4951564;28;20466;-45
2023/12/26 03:11:32;;;;;;;128.33;43.97;;;;;;;;;;4953081;28;20429;-45
2023/12/26 03:13:59;;;;;;;127.97;45.25;;;;;;;;;;4953412;28;20402;-45
2023/12/26 03:16:25;;;;;;;120.85;42.30;;;;;;;;;;4953406;28;20174;-45
2023/12/26 03:18:52;;;;;;;152.43;53.00;;;;;;;;;;4953383;28;20639;-44
2023/12/26 03:21:18;;;;;;;126.72;44.55;;;;;;;;;;4953614;28;20264;-45
2023/12/26 03:23:43;;;;;;;111.23;39.67;;;;;;;;;;4960915;28;20264;-46
2023/12/26 03:26:09;;;;;;;124.77;41.73;;;;;;;;;;4971359;28;20421;-45
2023/12/26 03:28:36;;;;;;;135.57;47.70;;;;;;;;;;4957295;28;20885;-46
2023/12/26 03:31:08;;;;;;;129.80;48.97;;;;;;;;;;4975683;28;20483;-45
2023/12/26 03:33:36;;;;;;;143.48;50.38;;;;;;;;;;4960320;28;20241;-46
2023/12/26 03:36:02;;;;;;;143.82;51.35;;;;;;;;;;4969234;28;20177;-46
2023/12/26 03:38:28;;;;;;;125.00;43.95;;;;;;;;;;4968159;28;20178;-46
2023/12/26 03:40:54;;;;;;;115.53;40.27;;;;;;;;;;4961018;28;20178;-46
2023/12/26 03:43:20;;;;;;;124.07;43.43;;;;;;;;;;4975861;28;20479;-46
2023/12/26 03:45:46;;;;;;;123.20;42.70;;;;;;;;;;4957102;28;20894;-46
2023/12/26 03:48:12;;;;;;;124.68;40.55;;;;;;;;;;4972633;28;20264;-46
2023/12/26 03:50:39;;;;;;;124.00;42.90;;;;;;;;;;4964233;28;20174;-46
2023/12/26 03:53:05;;;;;;;128.20;43.42;;;;;;;;;;4964424;28;20224;-46
2023/12/26 03:55:31;;;;;;;132.18;44.30;;;;;;;;;;4972335;28;20218;-45
2023/12/26 03:57:57;;;;;;;125.13;41.93;;;;;;;;;;4956641;28;20174;-46
2023/12/26 04:00:23;;;;;;;127.18;42.60;;;;;;;;;;4956758;28;20505;-45
2023/12/26 04:02:49;;;;;;;129.38;42.63;;;;;;;;;;4971775;28;20209;-46
2023/12/26 04:05:15;;;;;;;133.03;43.77;;;;;;;;;;4964863;28;20201;-46
2023/12/26 04:07:41;;;;;;;65.97;23.85;;;;;;;;;;4963788;28;20429;-46
2023/12/26 04:10:07;;;;;;;127.43;41.67;;;;;;;;;;4972440;28;20198;-46
2023/12/26 04:12:34;;;;;;;137.80;51.08;;;;;;;;;;4956214;28;20422;-45
2023/12/26 04:15:00;;;;;;;101.07;36.65;;;;;;;;;;4975261;28;20630;-46
2023/12/26 04:17:26;;;;;;;118.88;40.97;;;;;;;;;;4960741;28;20193;-46
2023/12/26 04:19:52;;;;;;;118.38;40.92;;;;;;;;;;4967348;28;20186;-46
2023/12/26 04:22:18;;;;;;;96.93;33.67;;;;;;;;;;4974668;28;20209;-46
2023/12/26 04:24:44;;;;;;;129.50;42.83;;;;;;;;;;4969879;28;20509;-46
2023/12/26 04:27:10;;;;;;;136.60;47.87;;;;;;;;;;4956123;28;20993;-46
2023/12/26 04:29:36;;;;;;;122.03;41.57;;;;;;;;;;4956113;28;20553;-46
2023/12/26 04:32:02;;;;;;;156.37;52.80;;;;;;;;;;4955626;28;20430;-46
2023/12/26 04:34:28;;;;;;;143.02;50.13;;;;;;;;;;4956664;28;20410;-47
2023/12/26 04:36:54;;;;;;;68.13;25.23;;;;;;;;;;4958707;28;20198;-46
2023/12/26 04:39:20;;;;;;;126.25;41.97;;;;;;;;;;4955843;28;20929;-45
2023/12/26 04:41:49;;;;;;;143.43;48.60;;;;;;;;;;4955579;28;20278;-45
2023/12/26 04:44:15;;;;;;;125.55;41.80;;;;;;;;;;4955569;28;20415;-46
2023/12/26 04:46:41;;;;;;;164.75;54.15;;;;;;;;;;4956044;28;20166;-46
2023/12/26 04:49:07;;;;;;;135.48;44.80;;;;;;;;;;4955659;28;20292;-45
2023/12/26 04:51:33;;;;;;;141.45;45.05;;;;;;;;;;4950996;28;20241;-46
2023/12/26 04:53:59;;;;;;;138.03;43.47;;;;;;;;;;4955574;28;20166;-46
2023/12/26 04:56:26;;;;;;;137.57;42.57;;;;;;;;;;4955478;28;20433;-46
2023/12/26 04:58:52;;;;;;;179.68;55.17;;;;;;;;;;4955486;28;20452;-46
2023/12/26 05:01:19;;;;;;;140.35;44.40;;;;;;;;;;4955274;28;20174;-45
2023/12/26 05:03:46;;;;;;;143.65;44.13;;;;;;;;;;4955202;28;20665;-46
2023/12/26 05:06:12;;;;;;;139.45;43.75;;;;;;;;;;4955446;28;20184;-46
2023/12/26 05:08:38;;;;;;;141.45;43.25;;;;;;;;;;4955333;28;20213;-46
2023/12/26 05:11:05;;;;;;;118.82;38.35;;;;;;;;;;4970068;28;20486;-46
2023/12/26 05:13:32;;;;;;;145.43;44.72;;;;;;;;;;4963380;28;20257;-46
2023/12/26 05:16:01;;;;;;;142.10;46.20;;;;;;;;;;4962489;28;20173;-46
2023/12/26 05:18:27;;;;;;;133.48;41.13;;;;;;;;;;4971346;28;20179;-46
2023/12/26 05:20:53;;;;;;;136.20;42.50;;;;;;;;;;4954810;28;20545;-46
2023/12/26 05:23:18;;;;;;;148.53;45.87;;;;;;;;;;4973955;28;20491;-46
2023/12/26 05:25:45;;;;;;;162.70;53.07;;;;;;;;;;4959420;28;20414;-46
2023/12/26 05:28:11;;;;;;;133.20;41.45;;;;;;;;;;4966044;28;20449;-47
2023/12/26 05:30:37;;;;;;;134.23;43.07;;;;;;;;;;4967117;28;20209;-46
2023/12/26 05:33:03;;;;;;;137.10;43.17;;;;;;;;;;4957699;28;20537;-45
2023/12/26 05:35:29;;;;;;;143.35;43.70;;;;;;;;;;4974403;28;20451;-46
2023/12/26 05:37:55;;;;;;;148.25;45.83;;;;;;;;;;4955710;28;20178;-45
2023/12/26 05:40:21;;;;;;;139.40;44.50;;;;;;;;;;4969192;28;20534;-46
2023/12/26 05:42:47;;;;;;;137.13;43.20;;;;;;;;;;4963429;28;20460;-46
2023/12/26 05:45:13;;;;;;;124.22;48.20;;;;;;;;;;4961235;28;20787;-46
2023/12/26 05:47:39;;;;;;;161.35;53.67;;;;;;;;;;4970738;28;20631;-46
2023/12/26 05:50:06;;;;;;;134.37;43.77;;;;;;;;;;4954928;28;20277;-46
2023/12/26 05:52:32;;;;;;;157.23;51.88;;;;;;;;;;4972343;28;20425;-46
2023/12/26 05:54:58;;;;;;;108.13;37.58;;;;;;;;;;4959825;28;20220;-46
2023/12/26 05:57:24;;;;;;;145.87;50.90;;;;;;;;;;4957119;28;20206;-45
2023/12/26 05:59:50;;;;;;;128.90;45.70;;;;;;;;;;4960530;28;20417;-45
2023/12/26 06:02:16;;;;;;;138.90;50.70;;;;;;;;;;4971119;28;20818;-46
2023/12/26 06:04:42;;;;;;;105.17;36.73;;;;;;;;;;4954612;28;20194;-45
2023/12/26 06:07:08;;;;;;;117.03;44.40;;;;;;;;;;4954055;28;20421;-46
2023/12/26 06:09:34;;;;;;;112.03;42.37;;;;;;;;;;4940846;28;20472;-46
2023/12/26 06:12:00;;;;;;;120.13;42.72;;;;;;;;;;4944220;28;20426;-46
2023/12/26 06:14:26;;;;;;;136.67;50.40;;;;;;;;;;4948637;28;20175;-46
2023/12/26 06:16:52;;;;;;;113.50;41.57;;;;;;;;;;4936891;29;20404;-47
2023/12/26 06:19:18;;;;;;;141.85;48.92;;;;;;;;;;4954298;28;20774;-45
2023/12/26 06:21:44;;;;;;;144.03;49.27;;;;;;;;;;4936839;28;20210;-46
2023/12/26 06:24:10;;;;;;;81.57;35.33;;;;;;;;;;4947764;29;20918;-46
2023/12/26 06:26:36;;;;;;;80.72;34.58;;;;;;;;;;4945011;28;20410;-46
2023/12/26 06:29:02;;;;;;;92.50;34.70;;;;;;;;;;4939779;29;20268;-48
2023/12/26 06:31:28;;;;;;;106.40;43.23;;;;;;;;;;4952603;28;20437;-46
2023/12/26 06:33:53;;;;;;;105.33;37.97;;;;;;;;;;4934916;29;20398;-46
2023/12/26 06:36:19;;;;;;;89.27;34.90;;;;;;;;;;4951044;29;20828;-47
2023/12/26 06:38:45;;;;;;;89.80;32.40;;;;;;;;;;4941523;28;20425;-47
2023/12/26 06:41:11;;;;;;;74.53;29.90;;;;;;;;;;4942625;28;20261;-47
2023/12/26 06:43:38;;;;;;;82.60;30.45;;;;;;;;;;4949339;28;20971;-46
2023/12/26 06:46:04;;;;;;;96.25;38.20;;;;;;;;;;4935097;29;20180;-48
2023/12/26 06:48:30;;;;;;;134.07;49.63;;;;;;;;;;4954327;28;20542;-45
2023/12/26 06:50:56;;;;;;;18.80;16.05;;;;;;;;;;4937618;28;20174;-45
2023/12/26 06:53:22;;;;;;;108.53;39.63;;;;;;;;;;4946214;29;20281;-46
2023/12/26 06:55:48;;;;;;;120.10;44.63;;;;;;;;;;4945719;28;20218;-45
2023/12/26 06:58:14;;;;;;;6.90;6.20;;;;;;;;;;4944710;29;20410;-46
2023/12/26 07:00:40;;;;;;;102.43;36.03;;;;;;;;;;4934193;29;20604;-46
2023/12/26 07:03:08;;;;;;;65.93;28.33;;;;;;;;;;4954245;28;20521;-46
2023/12/26 07:05:34;;;;;;;120.63;39.63;;;;;;;;;;4953102;28;20853;-46
2023/12/26 07:08:00;;;;;;;117.20;40.70;;;;;;;;;;4941954;28;20221;-46
2023/12/26 07:10:26;;;;;;;155.63;54.00;;;;;;;;;;4942080;29;20469;-46
2023/12/26 07:12:52;;;;;;;114.17;38.67;;;;;;;;;;4949675;28;20438;-46
2023/12/26 07:15:18;;;;;;;133.60;41.57;;;;;;;;;;4934521;29;20430;-46
2023/12/26 07:17:44;;;;;;;131.83;42.00;;;;;;;;;;4953310;29;20779;-46
2023/12/26 07:20:10;;;;;;;139.63;47.97;;;;;;;;;;4938325;28;20458;-46
2023/12/26 07:22:36;;;;;;;123.45;43.08;;;;;;;;;;4944826;29;20941;-46
2023/12/26 07:25:02;;;;;;;118.73;42.17;;;;;;;;;;4946612;28;20192;-46
2023/12/26 07:27:28;;;;;;;137.95;46.67;;;;;;;;;;4937479;29;20437;-46
2023/12/26 07:29:54;;;;;;;153.53;50.00;;;;;;;;;;4953536;28;20671;-46
2023/12/26 07:32:20;;;;;;;126.75;41.92;;;;;;;;;;4934501;28;20513;-46
2023/12/26 07:34:49;;;;;;;127.55;41.13;;;;;;;;;;4948729;29;20225;-46
2023/12/26 07:37:15;;;;;;;137.40;43.90;;;;;;;;;;4942306;28;20174;-46
2023/12/26 07:39:41;;;;;;;124.80;40.50;;;;;;;;;;4939857;29;20197;-46
2023/12/26 07:42:08;;;;;;;137.47;43.67;;;;;;;;;;4950262;28;20438;-45
2023/12/26 07:44:34;;;;;;;128.35;41.38;;;;;;;;;;4934182;29;20501;-45
2023/12/26 07:47:00;;;;;;;124.22;41.00;;;;;;;;;;4952412;29;20245;-45
2023/12/26 07:49:26;;;;;;;130.57;43.53;;;;;;;;;;4938558;28;20740;-46
2023/12/26 07:51:52;;;;;;;150.20;51.37;;;;;;;;;;4944152;28;20206;-46
2023/12/26 07:54:18;;;;;;;139.88;49.42;;;;;;;;;;4946462;28;20411;-45
2023/12/26 07:56:44;;;;;;;92.50;35.87;;;;;;;;;;4936595;29;20735;-46
2023/12/26 07:59:10;;;;;;;121.23;44.70;;;;;;;;;;4953222;28;20504;-46
2023/12/26 08:01:36;;;;;;;118.28;42.25;;;;;;;;;;4934966;28;20853;-46
2023/12/26 08:04:02;;;;;;;129.48;47.85;;;;;;;;;;4947710;28;20186;-46
2023/12/26 08:06:28;;;;;;;142.25;55.65;;;;;;;;;;4943017;28;20241;-45
2023/12/26 08:08:54;;;;;;;137.13;48.57;;;;;;;;;;4951957;29;20265;-46
2023/12/26 08:11:20;;;;;;;136.93;51.37;;;;;;;;;;4952836;28;20438;-46
2023/12/26 08:13:46;;;;;;;120.20;40.72;;;;;;;;;;4956478;28;20977;-46
2023/12/26 08:16:12;;;;;;;121.25;42.88;;;;;;;;;;4974691;28;20169;-46
2023/12/26 08:18:38;;;;;;;123.80;41.67;;;;;;;;;;4961335;28;20213;-45
2023/12/26 08:21:04;;;;;;;124.53;43.63;;;;;;;;;;4966813;28;20733;-46
2023/12/26 08:23:31;;;;;;;120.00;44.40;;;;;;;;;;4967242;28;20417;-45
2023/12/26 08:25:57;;;;;;;116.47;42.22;;;;;;;;;;4957240;28;20238;-46
2023/12/26 08:28:22;;;;;;;118.77;43.13;;;;;;;;;;4973896;28;20220;-45
2023/12/26 08:30:48;;;;;;;115.33;40.70;;;;;;;;;;4955693;28;20433;-46
2023/12/26 08:33:15;;;;;;;112.60;40.07;;;;;;;;;;4968749;28;21095;-45
2023/12/26 08:35:41;;;;;;;118.22;42.70;;;;;;;;;;4964425;28;20508;-46
2023/12/26 08:38:07;;;;;;;121.75;43.97;;;;;;;;;;4961983;28;20177;-46
2023/12/26 08:40:33;;;;;;;95.22;43.00;;;;;;;;;;4968093;28;20241;-46
2023/12/26 08:42:59;;;;;;;114.63;49.20;;;;;;;;;;4936708;29;20623;-46
2023/12/26 08:45:25;;;;;;;85.77;38.63;;;;;;;;;;4972358;28;20650;-45
2023/12/26 08:47:53;;;;;;;102.50;45.57;;;;;;;;;;4961356;28;20457;-46
2023/12/26 08:50:20;;;;;;;111.00;44.88;;;;;;;;;;4965565;28;20533;-45
2023/12/26 08:52:46;;;;;;;110.43;41.58;;;;;;;;;;4968796;28;20221;-46
2023/12/26 08:55:13;;;;;;;125.43;50.40;;;;;;;;;;4957846;28;20166;-45
2023/12/26 08:57:40;;;;;;;107.28;42.95;;;;;;;;;;4965608;28;20178;-45
2023/12/26 09:00:06;;;;;;;110.25;42.97;;;;;;;;;;4973419;28;20173;-45
2023/12/26 09:02:32;;;;;;;117.13;50.80;;;;;;;;;;4960608;28;20256;-46
2023/12/26 09:04:59;;;;;;;100.63;39.78;;;;;;;;;;4953281;28;20610;-45
2023/12/26 09:07:25;;;;;;;122.03;50.97;;;;;;;;;;4955416;28;20173;-45
2023/12/26 09:09:51;;;;;;;104.93;38.55;;;;;;;;;;4955327;28;20574;-45
2023/12/26 09:12:17;;;;;;;105.20;48.85;;;;;;;;;;4954765;28;20201;-46
2023/12/26 09:14:43;;;;;;;104.35;44.83;;;;;;;;;;4960804;28;20174;-46
2023/12/26 09:17:09;;;;;;;104.27;43.90;;;;;;;;;;4956415;28;20183;-46
2023/12/26 09:19:35;;;;;;;102.10;44.40;;;;;;;;;;4955277;28;20557;-46
2023/12/26 09:22:01;;;;;;;109.30;55.80;;;;;;;;;;4954639;28;20812;-46
2023/12/26 09:24:27;;;;;;;89.93;56.17;;;;;;;;;;4955002;28;20422;-45
2023/12/26 09:26:53;;;;;;;88.93;54.33;;;;;;;;;;4954950;28;20793;-46
2023/12/26 09:29:19;;;;;;;97.87;53.87;;;;;;;;;;4954888;28;20322;-47
2023/12/26 09:31:44;;;;;;;80.77;44.57;;;;;;;;;;4954520;28;20429;-46
2023/12/26 09:34:10;;;;;;;75.23;52.10;;;;;;;;;;4954872;28;20413;-46
2023/12/26 09:36:36;;;;;;;83.90;43.73;;;;;;;;;;4954646;28;20410;-46
2023/12/26 09:39:02;;;;;;;92.47;51.63;;;;;;;;;;4954585;28;20492;-46
2023/12/26 09:41:28;;;;;;;97.57;47.22;;;;;;;;;;4954823;28;20437;-47
2023/12/26 09:43:54;;;;;;;67.93;35.63;;;;;;;;;;4959184;28;20178;-45
2023/12/26 09:46:20;;;;;;;88.07;49.30;;;;;;;;;;4972496;28;21000;-45
2023/12/26 09:48:47;;;;;;;92.97;42.30;;;;;;;;;;4954658;28;20190;-45
2023/12/26 09:51:15;;;;;;;87.30;41.22;;;;;;;;;;4970636;28;20189;-46
2023/12/26 09:53:44;;;;;;;101.18;43.25;;;;;;;;;;4960590;28;20185;-46
2023/12/26 09:56:10;;;;;;;102.30;53.70;;;;;;;;;;4964010;28;20174;-45
2023/12/26 09:58:42;;;;;;;86.10;45.10;;;;;;;;;;4962190;28;20257;-45
2023/12/26 10:01:08;;;;;;;90.57;47.22;;;;;;;;;;4970915;28;20525;-46
2023/12/26 10:03:34;;;;;;;75.43;57.33;;;;;;;;;;4953618;28;20646;-46
2023/12/26 10:06:01;;;;;;;54.22;49.33;;;;;;;;;;4972451;28;20175;-46
2023/12/26 10:08:27;;;;;;;50.58;47.17;;;;;;;;;;4959745;28;20183;-45
2023/12/26 10:10:53;;;;;;;43.10;40.05;;;;;;;;;;4964005;28;20197;-45
2023/12/26 10:13:19;;;;;;;40.43;37.40;;;;;;;;;;4967374;28;20235;-46
2023/12/26 10:15:45;;;;;;;41.67;38.53;;;;;;;;;;4956021;28;20404;-45
2023/12/26 10:18:11;;;;;;;43.13;40.20;;;;;;;;;;4973813;28;20397;-45
2023/12/26 10:20:37;;;;;;;47.65;44.33;;;;;;;;;;4938137;28;20895;-45
2023/12/26 10:23:04;;;;;;;47.83;44.33;;;;;;;;;;4948232;29;20387;-46
2023/12/26 10:25:30;;;;;;;47.10;43.72;;;;;;;;;;4944448;28;20434;-45
2023/12/26 10:27:57;;;;;;;65.38;59.47;;;;;;;;;;4936197;29;20627;-45
2023/12/26 10:30:25;;;;;;;39.85;36.80;;;;;;;;;;4945585;28;20274;-45
2023/12/26 10:33:01;;;;;;;46.50;43.03;;;;;;;;;;4934535;29;20187;-45
2023/12/26 10:35:27;;;;;;;47.08;43.17;;;;;;;;;;4952875;28;20174;-45
2023/12/26 10:37:53;;;;;;;38.55;35.50;;;;;;;;;;4938960;28;20186;-45
2023/12/26 10:40:19;;;;;;;47.55;43.50;;;;;;;;;;4945051;29;20186;-45
2023/12/26 10:42:49;;;;;;;47.58;43.97;;;;;;;;;;4945534;28;20206;-45
2023/12/26 10:45:15;;;;;;;45.10;41.58;;;;;;;;;;4937558;29;20177;-45
2023/12/26 10:47:45;;;;;;;43.05;39.20;;;;;;;;;;4947042;28;20595;-44
2023/12/26 10:50:13;;;;;;;51.13;46.47;;;;;;;;;;4953390;28;20221;-45
2023/12/26 10:55:26;;;;;;;45.53;40.78;;;;;;;;;;4948558;29;20262;-45
2023/12/26 10:57:53;;;;;;;48.80;44.60;;;;;;;;;;4943077;28;20580;-45
2023/12/26 11:00:47;;;;;;;44.92;40.78;;;;;;;;;;4940554;29;20422;-45
2023/12/26 13:51:31;;;;;;;53.38;48.97;;;;;;;;;;4948305;28;20259;-44
2023/12/26 13:53:57;;;;;;;46.50;42.80;;;;;;;;;;4954101;28;20253;-44
2023/12/26 13:56:23;;;;;;;55.45;50.65;;;;;;;;;;4946132;28;20419;-44
2023/12/26 13:58:49;;;;;;;61.80;57.17;;;;;;;;;;4938332;29;20179;-44
2023/12/26 14:01:17;;;;;;;48.17;44.43;;;;;;;;;;4953665;28;20426;-44
2023/12/26 14:03:49;;;;;;;52.90;47.85;;;;;;;;;;4953454;28;20442;-44
2023/12/26 14:06:22;;;;;;;57.72;51.78;;;;;;;;;;4943164;28;20277;-44
2023/12/26 14:08:51;;;;;;;49.75;44.70;;;;;;;;;;4941134;28;20190;-44
2023/12/26 14:11:18;;;;;;;57.83;46.03;;;;;;;;;;4942215;28;20189;-44
2023/12/26 14:13:44;;;;;;;58.85;49.60;;;;;;;;;;4952756;29;20274;-44
2023/12/26 14:16:10;;;;;;;55.40;49.47;;;;;;;;;;4953777;28;20166;-44
2023/12/26 14:18:36;;;;;;;57.23;47.87;;;;;;;;;;4953627;28;20824;-43
2023/12/26 14:21:03;;;;;;;56.40;43.33;;;;;;;;;;4952407;28;20409;-43
2023/12/26 14:23:29;;;;;;;55.97;43.88;;;;;;;;;;4952332;28;20920;-44
2023/12/26 14:25:55;;;;;;;56.10;45.17;;;;;;;;;;4952778;28;20260;-44
2023/12/26 14:28:21;;;;;;;51.03;40.95;;;;;;;;;;4947462;28;20172;-44
2023/12/26 14:30:47;;;;;;;55.07;44.77;;;;;;;;;;4933130;29;20693;-44
2023/12/26 14:33:19;;;;;;;65.17;49.37;;;;;;;;;;4951945;28;20418;-43
2023/12/26 14:35:45;;;;;;;61.42;45.17;;;;;;;;;;4935373;28;20411;-44
2023/12/26 14:38:11;;;;;;;67.22;50.92;;;;;;;;;;4948617;28;20612;-44
2023/12/26 14:40:37;;;;;;;56.90;44.67;;;;;;;;;;4948717;28;20202;-44
2023/12/26 14:43:03;;;;;;;58.90;44.37;;;;;;;;;;4947585;28;20830;-44
2023/12/26 14:45:29;;;;;;;62.53;47.03;;;;;;;;;;4952816;28;20414;-44
2023/12/26 14:47:55;;;;;;;65.13;45.27;;;;;;;;;;4950465;29;20442;-44
2023/12/26 14:50:21;;;;;;;72.77;52.93;;;;;;;;;;4937102;28;20471;-44
2023/12/26 14:52:47;;;;;;;70.80;44.57;;;;;;;;;;4946673;28;20436;-44
2023/12/26 14:55:13;;;;;;;68.13;45.30;;;;;;;;;;4945342;28;20814;-44
2023/12/26 14:57:39;;;;;;;64.10;44.03;;;;;;;;;;4939670;29;21208;-44
2023/12/26 15:00:05;;;;;;;60.50;44.43;;;;;;;;;;4945154;29;20895;-44
2023/12/26 15:02:32;;;;;;;61.60;42.33;;;;;;;;;;4952104;28;20438;-44
2023/12/26 15:04:58;;;;;;;73.68;49.83;;;;;;;;;;4936228;28;20450;-44
2023/12/26 15:07:24;;;;;;;59.67;42.25;;;;;;;;;;4944983;29;20329;-44
2023/12/26 15:09:50;;;;;;;53.92;40.10;;;;;;;;;;4951618;28;20297;-44
2023/12/26 15:12:16;;;;;;;67.50;50.20;;;;;;;;;;4948744;28;20203;-43
2023/12/26 15:14:43;;;;;;;61.38;43.67;;;;;;;;;;4936760;29;20694;-43
2023/12/26 15:17:09;;;;;;;68.03;42.25;;;;;;;;;;4953368;28;20174;-43
2023/12/26 15:19:36;;;;;;;69.60;43.75;;;;;;;;;;4947118;28;20207;-44
2023/12/26 15:22:01;;;;;;;79.35;51.80;;;;;;;;;;4949055;28;20220;-44
2023/12/26 15:24:27;;;;;;;71.07;43.70;;;;;;;;;;4949748;28;20257;-44
2023/12/26 15:26:54;;;;;;;79.93;44.30;;;;;;;;;;4941721;29;20445;-44
2023/12/26 15:29:20;;;;;;;81.80;44.78;;;;;;;;;;4957054;28;20475;-44
2023/12/26 15:31:46;;;;;;;72.18;43.05;;;;;;;;;;4956914;28;20197;-44
2023/12/26 15:34:12;;;;;;;85.43;57.38;;;;;;;;;;4942312;28;20179;-44
2023/12/26 15:36:39;;;;;;;72.22;47.40;;;;;;;;;;4956024;28;20178;-43
2023/12/26 15:39:05;;;;;;;37.28;34.15;;;;;;;;;;4949562;28;20175;-43
2023/12/26 15:41:31;;;;;;;49.67;41.93;;;;;;;;;;4941141;29;20213;-44
2023/12/26 15:43:57;;;;;;;71.45;41.42;;;;;;;;;;4956936;28;20405;-44
2023/12/26 15:46:24;;;;;;;66.72;40.05;;;;;;;;;;4938131;28;20178;-44
2023/12/26 15:48:51;;;;;;;66.30;41.47;;;;;;;;;;4952156;29;20598;-43
2023/12/26 15:51:19;;;;;;;56.00;43.25;;;;;;;;;;4945565;28;20179;-44
2023/12/26 15:53:45;;;;;;;87.68;45.17;;;;;;;;;;4944880;29;20264;-44
2023/12/26 15:56:12;;;;;;;84.70;44.13;;;;;;;;;;4952300;28;20648;-44
2023/12/26 15:58:38;;;;;;;85.22;42.88;;;;;;;;;;4954801;29;20166;-44
2023/12/26 16:01:04;;;;;;;71.80;39.20;;;;;;;;;;4937589;28;20237;-44
2023/12/26 16:03:30;;;;;;;96.32;49.75;;;;;;;;;;4952299;29;20181;-44
2023/12/26 16:05:56;;;;;;;83.90;42.93;;;;;;;;;;4945607;28;20186;-43
2023/12/26 16:08:22;;;;;;;85.25;43.13;;;;;;;;;;4944048;29;20412;-44
2023/12/26 16:10:49;;;;;;;63.15;38.30;;;;;;;;;;4953255;28;20709;-43
2023/12/26 16:13:16;;;;;;;98.90;44.33;;;;;;;;;;4937248;29;20190;-44
2023/12/26 16:15:42;;;;;;;104.55;45.13;;;;;;;;;;4954167;29;20190;-44
2023/12/26 16:18:08;;;;;;;99.37;44.50;;;;;;;;;;4941772;28;20190;-44
2023/12/26 16:20:34;;;;;;;121.30;51.78;;;;;;;;;;4947310;29;20485;-44
2023/12/26 16:23:00;;;;;;;116.97;46.63;;;;;;;;;;4949458;28;20213;-44
2023/12/26 16:25:26;;;;;;;117.88;47.25;;;;;;;;;;4937461;29;20423;-44
2023/12/26 16:27:52;;;;;;;105.43;46.20;;;;;;;;;;4952631;28;20245;-43
2023/12/26 16:30:18;;;;;;;118.67;47.50;;;;;;;;;;4954848;28;20516;-43
2023/12/26 16:32:44;;;;;;;125.18;50.60;;;;;;;;;;4953147;28;20431;-44
2023/12/26 16:35:10;;;;;;;126.20;46.83;;;;;;;;;;4955513;28;20182;-44
2023/12/26 16:37:36;;;;;;;132.65;48.53;;;;;;;;;;4959245;28;20178;-44
2023/12/26 16:40:02;;;;;;;134.67;47.73;;;;;;;;;;4954975;28;20205;-44
2023/12/26 16:42:28;;;;;;;137.48;47.65;;;;;;;;;;4954811;28;20524;-44
2023/12/26 16:44:54;;;;;;;132.73;47.00;;;;;;;;;;4954852;28;20261;-44
2023/12/26 16:47:20;;;;;;;128.20;44.33;;;;;;;;;;4955166;28;20421;-43
2023/12/26 16:49:46;;;;;;;139.75;48.78;;;;;;;;;;4954841;28;20884;-44
2023/12/26 16:52:12;;;;;;;130.93;47.15;;;;;;;;;;4954837;28;20702;-43
2023/12/26 16:54:39;;;;;;;124.20;45.13;;;;;;;;;;4955081;28;20178;-44